EST,Max TemperatureF,Mean TemperatureF,Min TemperatureF,Max Dew PointF,MeanDew PointF,Min DewpointF,Max Humidity, Mean Humidity, Min Humidity, Max Sea Level PressureIn, Mean Sea Level PressureIn, Min Sea Level PressureIn, Max VisibilityMiles, Mean VisibilityMiles, Min VisibilityMiles, Max Wind SpeedMPH, Mean Wind SpeedMPH, Max Gust SpeedMPH,PrecipitationIn, CloudCover, Events, WindDirDegrees
2013-11-1,69,59,48,63,54,38,97,66,35,29.68,29.46,29.36,10,6,1,24,11,37,0.77,6,Rain,205
2013-11-2,59,46,33,43,39,33,100,78,55,29.88,29.70,29.63,10,8,1,18,6,24,T,5,Rain,87
2013-11-3,40,32,23,34,22,16,79,60,40,30.49,30.20,29.90,10,10,10,21,9,25,0.00,4,,31
2013-11-4,39,29,18,22,17,14,92,65,37,30.71,30.66,30.53,10,10,10,15,4,18,0.00,0,,55
2013-11-5,49,35,20,33,27,19,100,75,49,30.69,30.60,30.48,10,10,10,16,3,20,0.00,1,,209
2013-11-6,59,46,33,44,40,32,96,75,53,30.45,30.22,29.94,10,10,10,18,7,25,0.00,3,,191
2013-11-7,54,42,29,52,41,21,100,71,41,29.91,29.83,29.77,10,9,3,22,8,28,0.14,6,Rain,251
2013-11-8,46,35,24,33,24,19,92,66,39,30.16,30.00,29.89,10,10,10,25,6,33,0.00,5,,284
2013-11-9,41,31,21,32,26,19,89,72,54,30.25,30.13,29.94,10,10,10,12,4,16,0.00,4,,178
2013-11-10,50,41,32,38,34,27,100,78,56,29.98,29.84,29.75,10,10,6,18,7,26,0.03,7,Rain,237
2013-11-11,46,40,34,36,28,24,76,63,49,30.14,30.02,29.91,10,10,10,20,8,28,T,6,,230
2013-11-12,41,31,20,34,18,13,79,62,45,30.30,30.15,29.92,10,10,9,18,9,24,T,5,Rain-Snow,324
2013-11-13,36,27,18,19,13,6,67,48,29,30.38,30.29,30.15,10,10,10,13,6,17,0.00,2,,273
2013-11-14,49,37,25,25,21,18,81,60,39,30.13,30.11,30.07,10,10,10,14,6,20,0.00,2,,199
2013-11-15,54,39,23,28,21,17,88,56,24,30.19,30.16,30.11,10,10,10,14,4,18,0.00,0,,194
2013-11-16,57,43,28,34,29,25,92,66,39,30.32,30.27,30.19,10,10,10,12,2,15,0.00,2,,157
2013-11-17,56,43,29,54,47,28,100,88,76,30.26,30.00,29.69,10,5,0,8,2,10,0.21,8,Fog-Rain,171
2013-11-18,62,52,41,57,42,26,90,68,46,29.74,29.57,29.43,10,9,2,23,10,40,0.26,5,Rain,239
2013-11-19,41,35,28,31,20,13,82,63,44,30.41,30.09,29.76,10,10,10,22,9,31,T,5,,318
2013-11-20,37,28,18,17,15,14,84,64,44,30.66,30.60,30.43,10,10,10,12,4,16,0.00,0,,339
2013-11-21,41,28,14,27,19,12,92,66,40,30.66,30.55,30.38,10,10,10,10,1,14,0.00,2,,177
2013-11-22,44,39,34,42,37,28,100,85,70,30.35,30.07,29.85,10,3,1,7,1,14,0.15,8,Rain,186
2013-11-23,45,35,24,33,19,8,89,64,39,30.03,29.93,29.82,10,10,9,24,9,37,T,3,,288
2013-11-24,25,20,14,16,2,-1,55,47,38,30.32,30.12,29.90,10,9,2,29,14,39,T,2,Snow,315
2013-11-25,31,19,6,15,8,0,88,67,45,30.45,30.34,30.22,10,10,10,15,5,20,0.00,1,,182
2013-11-26,33,30,27,32,27,14,100,75,49,30.31,30.19,29.97,10,4,1,15,4,18,0.35,8,Rain-Snow,191
2013-11-27,39,36,32,38,35,30,100,93,85,29.91,29.50,29.40,10,6,2,17,5,23,1.02,8,Rain-Snow,338
2013-11-28,33,24,14,24,10,2,92,63,33,30.47,30.16,29.64,10,10,10,22,7,25,0.00,1,,280
2013-11-29,28,20,11,14,9,6,88,64,39,30.79,30.64,30.48,10,10,10,10,2,14,0.00,2,,26
2013-11-30,29,18,7,16,10,5,92,69,46,30.83,30.66,30.38,10,10,10,13,3,15,0.00,3,,184